Aviation Digital Data Service (ADDS)

Output produced by TAFs form (1416 UTC 31 August 2016)
found at http://www.aviationweather.gov/adds/tafs/
 
KGFL 311352Z 3114/0112 19008KT P6SM VCSH SCT080 BKN120 OVC200 
     FM312100 20008KT P6SM VCSH BKN050 OVC090 
     FM010000 21004KT 6SM -SHRA BR OVC050 
     FM010700 VRB03KT 3SM BR VCSH BKN025 OVC040